createdAt,value
2022-12-31T00:01:49.319Z,14.50
2022-12-31T00:04:16.180Z,15.73
2022-12-31T00:06:42.844Z,13.30
2022-12-31T00:09:10.596Z,15.70
2022-12-31T00:11:38.125Z,15.02
2022-12-31T00:14:05.550Z,15.10
2022-12-31T00:16:36.770Z,15.07
2022-12-31T00:19:05.066Z,14.40
2022-12-31T00:21:34.152Z,16.95
2022-12-31T00:24:01.741Z,15.63
2022-12-31T00:26:31.000Z,13.93
2022-12-31T00:28:59.753Z,15.20
2022-12-31T00:31:29.454Z,14.65
2022-12-31T00:33:57.111Z,13.90
2022-12-31T00:36:28.129Z,14.20
2022-12-31T00:38:56.357Z,13.88
2022-12-31T00:41:23.953Z,13.93
2022-12-31T00:43:50.931Z,13.85
2022-12-31T00:46:18.605Z,14.48
2022-12-31T00:48:45.914Z,15.38
2022-12-31T00:51:15.960Z,14.35
2022-12-31T00:53:43.338Z,15.30
2022-12-31T00:56:13.628Z,15.30
2022-12-31T00:58:41.475Z,14.20
2022-12-31T01:01:19.227Z,14.85
2022-12-31T01:03:47.240Z,14.10
2022-12-31T01:06:14.491Z,12.98
2022-12-31T01:08:41.301Z,13.20
2022-12-31T01:11:25.362Z,13.73
2022-12-31T01:13:55.365Z,14.15
2022-12-31T01:16:26.025Z,14.85
2022-12-31T01:18:53.410Z,14.95
2022-12-31T01:21:21.599Z,14.38
2022-12-31T01:23:48.443Z,14.75
2022-12-31T01:26:16.572Z,13.93
2022-12-31T01:28:43.321Z,15.15
2022-12-31T01:31:13.254Z,14.48
2022-12-31T01:33:41.492Z,15.32
2022-12-31T01:36:25.081Z,15.30
2022-12-31T01:38:52.853Z,14.88
2022-12-31T01:41:22.344Z,14.98
2022-12-31T01:43:48.932Z,15.18
2022-12-31T01:46:23.849Z,15.23
2022-12-31T01:48:53.281Z,15.50
2022-12-31T01:51:21.161Z,14.60
2022-12-31T01:53:48.348Z,14.40
2022-12-31T01:56:15.132Z,15.60
2022-12-31T01:58:46.004Z,14.63
2022-12-31T02:01:18.702Z,14.98
2022-12-31T02:03:45.440Z,15.45
2022-12-31T02:06:20.689Z,14.50
2022-12-31T02:08:47.830Z,14.88
2022-12-31T02:11:26.797Z,15.10
2022-12-31T02:13:58.753Z,15.35
2022-12-31T02:16:40.893Z,14.18
2022-12-31T02:19:29.258Z,14.45
2022-12-31T02:22:01.479Z,13.77
2022-12-31T02:24:58.954Z,15.30
2022-12-31T02:27:45.463Z,15.18
2022-12-31T02:30:18.590Z,15.98
2022-12-31T02:32:45.227Z,15.70
2022-12-31T02:35:20.768Z,15.45
2022-12-31T02:37:53.168Z,14.75
2022-12-31T02:40:22.373Z,15.75
2022-12-31T02:42:55.116Z,16.38
2022-12-31T02:45:29.345Z,16.25
2022-12-31T02:48:03.449Z,15.32
2022-12-31T02:50:30.118Z,15.77
2022-12-31T02:53:28.737Z,16.08
2022-12-31T02:56:30.576Z,16.67
2022-12-31T02:59:28.843Z,17.27
2022-12-31T03:02:18.067Z,17.38
2022-12-31T03:04:50.489Z,18.13
2022-12-31T03:07:22.333Z,17.35
2022-12-31T03:09:50.018Z,17.95
2022-12-31T03:12:33.989Z,17.67
2022-12-31T03:15:00.673Z,16.38
2022-12-31T03:17:27.608Z,17.20
2022-12-31T03:20:09.683Z,17.38
2022-12-31T03:22:40.553Z,16.80
2022-12-31T03:25:24.282Z,17.33
2022-12-31T03:27:52.401Z,16.95
2022-12-31T03:30:21.029Z,16.70
2022-12-31T03:32:48.776Z,17.83
2022-12-31T03:35:17.340Z,16.92
2022-12-31T03:37:44.015Z,16.92
2022-12-31T03:40:12.950Z,16.45
2022-12-31T03:42:40.518Z,16.60
2022-12-31T03:45:08.839Z,16.38
2022-12-31T03:47:35.779Z,16.70
2022-12-31T03:50:02.894Z,16.77
2022-12-31T03:52:29.735Z,18.25
2022-12-31T03:54:56.440Z,17.40
2022-12-31T03:57:24.226Z,17.20
2022-12-31T03:59:51.020Z,18.95
2022-12-31T04:02:20.007Z,18.42
2022-12-31T04:04:49.851Z,18.50
2022-12-31T04:07:17.204Z,20.08
2022-12-31T04:09:43.986Z,21.15
2022-12-31T04:12:10.647Z,20.17
2022-12-31T04:14:37.270Z,19.27
2022-12-31T04:17:03.981Z,20.50
2022-12-31T04:19:31.937Z,20.52
2022-12-31T04:21:58.807Z,20.02
2022-12-31T04:24:25.742Z,19.42
2022-12-31T04:26:52.387Z,18.45
2022-12-31T04:29:19.706Z,17.95
2022-12-31T04:31:46.534Z,18.42
2022-12-31T04:34:13.444Z,19.77
2022-12-31T04:36:40.113Z,18.73
2022-12-31T04:39:07.276Z,18.30
2022-12-31T04:41:34.192Z,20.48
2022-12-31T04:44:01.093Z,18.58
2022-12-31T04:46:30.557Z,21.50
2022-12-31T04:49:02.276Z,20.98
2022-12-31T04:51:30.536Z,18.90
2022-12-31T04:53:58.262Z,21.50
2022-12-31T04:56:26.150Z,20.92
2022-12-31T04:58:52.980Z,19.65
2022-12-31T05:01:20.207Z,19.52
2022-12-31T05:03:47.152Z,18.55
2022-12-31T05:06:17.015Z,19.23
2022-12-31T05:08:43.954Z,19.33
2022-12-31T05:11:11.379Z,20.05
2022-12-31T05:13:38.327Z,20.63
2022-12-31T05:16:05.397Z,19.30
2022-12-31T05:18:32.945Z,20.13
2022-12-31T05:21:00.095Z,20.73
2022-12-31T05:23:27.525Z,19.83
2022-12-31T05:25:54.624Z,20.42
2022-12-31T05:28:21.688Z,20.83
2022-12-31T05:30:50.285Z,20.67
2022-12-31T05:33:18.387Z,19.20
2022-12-31T05:35:45.616Z,18.80
2022-12-31T05:38:12.370Z,19.17
2022-12-31T05:40:39.006Z,19.13
2022-12-31T05:43:05.806Z,20.80
2022-12-31T05:45:32.509Z,20.17
2022-12-31T05:47:59.242Z,18.60
2022-12-31T05:50:26.267Z,17.55
2022-12-31T05:52:52.917Z,20.30
2022-12-31T05:55:19.642Z,19.95
2022-12-31T05:57:46.474Z,19.63
2022-12-31T06:00:14.125Z,20.27
2022-12-31T06:02:41.107Z,19.77
2022-12-31T06:05:08.189Z,17.33
2022-12-31T06:07:34.864Z,18.90
2022-12-31T06:10:01.558Z,17.73
2022-12-31T06:12:28.220Z,17.48
2022-12-31T06:14:54.832Z,17.77
2022-12-31T06:17:22.545Z,17.08
2022-12-31T06:19:49.265Z,18.25
2022-12-31T06:22:16.144Z,16.98
2022-12-31T06:24:42.780Z,18.42
2022-12-31T06:27:09.745Z,19.45
2022-12-31T06:29:36.368Z,16.80
2022-12-31T06:32:03.038Z,18.98
2022-12-31T06:34:29.696Z,16.63
2022-12-31T06:36:56.373Z,16.00
2022-12-31T06:39:23.126Z,16.70
2022-12-31T06:41:49.819Z,17.05
2022-12-31T06:44:16.639Z,16.63
2022-12-31T06:46:43.390Z,17.73
2022-12-31T06:49:10.247Z,17.58
2022-12-31T06:51:36.883Z,16.27
2022-12-31T06:54:06.818Z,17.23
2022-12-31T06:56:35.007Z,17.85
2022-12-31T06:59:03.204Z,17.65
2022-12-31T07:01:43.423Z,17.75
2022-12-31T07:04:29.689Z,16.88
2022-12-31T07:07:01.225Z,17.33
2022-12-31T07:09:48.796Z,16.33
2022-12-31T07:12:41.245Z,17.58
2022-12-31T07:15:13.771Z,17.55
2022-12-31T07:17:41.449Z,17.13
2022-12-31T07:20:14.359Z,18.05
2022-12-31T07:22:41.450Z,17.35
2022-12-31T07:25:12.709Z,17.08
2022-12-31T07:28:19.177Z,19.40
2022-12-31T07:30:55.717Z,18.17
2022-12-31T07:33:32.116Z,18.77
2022-12-31T07:36:24.442Z,17.80
2022-12-31T07:39:00.031Z,18.75
2022-12-31T07:41:38.667Z,19.08
2022-12-31T07:44:12.530Z,19.05
2022-12-31T07:46:55.356Z,19.95
2022-12-31T07:49:23.533Z,19.80
2022-12-31T07:51:50.566Z,20.60
2022-12-31T07:54:17.266Z,20.38
2022-12-31T07:56:45.094Z,21.20
2022-12-31T07:59:23.944Z,19.75
2022-12-31T08:02:18.615Z,20.08
2022-12-31T08:05:00.848Z,19.58
2022-12-31T08:07:42.646Z,19.75
2022-12-31T08:10:19.836Z,21.20
2022-12-31T08:12:49.930Z,28.25
2022-12-31T08:15:18.789Z,54.90
2022-12-31T08:17:46.034Z,34.03
2022-12-31T08:20:15.990Z,29.88
2022-12-31T08:23:04.460Z,27.38
2022-12-31T08:25:55.824Z,24.77
2022-12-31T08:28:32.188Z,23.90
2022-12-31T08:33:39.116Z,23.33
2022-12-31T08:36:17.306Z,24.55
2022-12-31T08:38:56.753Z,23.77
2022-12-31T08:41:43.099Z,24.02
2022-12-31T08:44:22.619Z,24.52
2022-12-31T08:46:55.895Z,25.10
2022-12-31T08:49:22.684Z,23.50
2022-12-31T08:51:49.553Z,23.95
2022-12-31T08:54:16.422Z,23.05
2022-12-31T08:57:03.984Z,24.23
2022-12-31T09:00:01.226Z,22.85
2022-12-31T09:02:48.018Z,26.05
2022-12-31T09:05:40.681Z,32.40
2022-12-31T09:08:28.605Z,28.02
2022-12-31T09:11:09.654Z,28.13
2022-12-31T09:13:59.950Z,27.33
2022-12-31T09:16:57.305Z,31.75
2022-12-31T09:21:50.913Z,28.45
2022-12-31T09:24:17.823Z,29.10
2022-12-31T09:27:04.725Z,29.48
2022-12-31T09:32:12.274Z,29.13
2022-12-31T09:34:45.054Z,28.75
2022-12-31T09:37:21.723Z,29.52
2022-12-31T09:39:49.300Z,31.42
2022-12-31T09:42:32.337Z,37.15
2022-12-31T09:45:19.873Z,36.72
2022-12-31T09:48:17.298Z,32.53
2022-12-31T09:53:32.143Z,29.58
2022-12-31T09:56:15.163Z,29.60
2022-12-31T09:58:43.302Z,31.15
2022-12-31T10:01:38.484Z,30.08
2022-12-31T10:04:35.785Z,29.33
2022-12-31T10:07:15.569Z,30.55
2022-12-31T10:09:58.544Z,29.27
2022-12-31T10:12:55.743Z,32.05
2022-12-31T10:15:44.593Z,32.55
2022-12-31T10:18:42.171Z,34.15
2022-12-31T10:21:36.245Z,34.50
2022-12-31T10:24:18.494Z,38.55
2022-12-31T10:26:58.513Z,33.92
2022-12-31T10:29:32.055Z,34.60
2022-12-31T10:32:31.563Z,32.47
2022-12-31T10:35:00.419Z,32.10
2022-12-31T10:37:44.046Z,28.00
2022-12-31T10:40:41.311Z,25.92
2022-12-31T10:43:38.395Z,28.30
2022-12-31T10:46:36.657Z,27.77
2022-12-31T10:49:25.364Z,26.23
2022-12-31T10:52:12.864Z,27.92
2022-12-31T10:55:14.791Z,27.25
2022-12-31T10:58:16.715Z,28.17
2022-12-31T11:00:53.491Z,28.75
2022-12-31T11:03:50.341Z,29.63
2022-12-31T11:06:36.875Z,28.15
2022-12-31T11:09:39.118Z,28.52
2022-12-31T11:12:21.619Z,30.02
2022-12-31T11:15:03.457Z,28.50
2022-12-31T11:17:31.105Z,30.67
2022-12-31T11:20:13.934Z,30.15
2022-12-31T11:23:01.411Z,30.77
2022-12-31T11:25:48.113Z,29.67
2022-12-31T11:28:31.129Z,30.55
2022-12-31T11:31:14.310Z,29.80
2022-12-31T11:34:16.090Z,29.27
2022-12-31T11:37:13.274Z,29.02
2022-12-31T11:39:50.054Z,31.00
2022-12-31T11:42:32.974Z,35.78
2022-12-31T11:45:12.056Z,33.83
2022-12-31T11:51:06.310Z,37.53
2022-12-31T11:53:44.092Z,36.60
2022-12-31T11:56:18.571Z,36.65
2022-12-31T11:58:50.565Z,36.80
2022-12-31T12:01:27.048Z,37.15
2022-12-31T12:03:53.772Z,35.67
2022-12-31T12:06:27.959Z,35.90
2022-12-31T12:09:04.584Z,36.55
2022-12-31T12:11:35.135Z,35.72
2022-12-31T12:14:02.055Z,35.80
2022-12-31T12:16:28.885Z,33.60
2022-12-31T12:19:17.640Z,33.42
2022-12-31T12:21:47.605Z,32.08
2022-12-31T12:24:21.927Z,32.25
2022-12-31T12:26:49.192Z,33.40
2022-12-31T12:29:18.645Z,33.65
2022-12-31T12:32:04.351Z,33.63
2022-12-31T12:34:33.577Z,32.55
2022-12-31T12:37:00.540Z,32.88
2022-12-31T12:39:31.965Z,33.50
2022-12-31T12:42:03.587Z,30.70
2022-12-31T12:44:31.024Z,31.70
2022-12-31T12:46:58.432Z,31.98
2022-12-31T12:49:27.312Z,30.77
2022-12-31T12:52:09.313Z,32.22
2022-12-31T12:54:55.932Z,33.45
2022-12-31T12:57:39.591Z,30.60
2022-12-31T13:00:23.204Z,32.08
2022-12-31T13:02:59.779Z,31.60
2022-12-31T13:05:41.952Z,31.15
2022-12-31T13:08:39.059Z,31.13
2022-12-31T13:11:22.794Z,30.17
2022-12-31T13:14:01.035Z,30.80
2022-12-31T13:16:43.545Z,31.10
2022-12-31T13:19:42.045Z,31.45
2022-12-31T13:22:23.383Z,31.55
2022-12-31T13:24:51.050Z,30.73
2022-12-31T13:27:32.876Z,30.08
2022-12-31T13:30:02.375Z,29.38
2022-12-31T13:32:40.692Z,30.30
2022-12-31T13:35:29.020Z,27.60
2022-12-31T13:38:05.854Z,27.85
2022-12-31T13:40:53.098Z,27.35
2022-12-31T13:43:35.316Z,26.52
2022-12-31T13:46:22.282Z,24.05
2022-12-31T13:48:54.613Z,23.75
2022-12-31T13:51:45.911Z,23.00
2022-12-31T13:54:20.349Z,22.73
2022-12-31T13:56:50.612Z,21.77
2022-12-31T13:59:21.781Z,22.25
2022-12-31T14:02:08.397Z,21.60
2022-12-31T14:04:43.810Z,21.80
2022-12-31T14:07:16.913Z,19.88
2022-12-31T14:09:43.981Z,22.10
2022-12-31T14:12:21.772Z,20.98
2022-12-31T14:15:24.039Z,19.35
2022-12-31T14:18:04.613Z,22.50
2022-12-31T14:20:47.865Z,23.55
2022-12-31T14:23:49.857Z,16.88
2022-12-31T14:26:31.833Z,22.33
2022-12-31T14:29:19.545Z,19.23
2022-12-31T14:32:11.301Z,16.48
2022-12-31T14:34:45.789Z,16.15
2022-12-31T14:37:36.180Z,17.80
2022-12-31T14:40:25.489Z,17.52
2022-12-31T14:43:10.230Z,17.65
2022-12-31T14:46:01.478Z,16.67
2022-12-31T14:48:58.685Z,15.85
2022-12-31T14:51:30.175Z,19.35
2022-12-31T14:53:58.344Z,17.50
2022-12-31T14:56:44.631Z,17.48
2022-12-31T14:59:29.537Z,16.75
2022-12-31T15:01:58.629Z,17.85
2022-12-31T15:04:49.470Z,17.83
2022-12-31T15:07:30.237Z,16.48
2022-12-31T15:10:18.178Z,17.38
2022-12-31T15:13:06.811Z,16.58
2022-12-31T15:15:57.424Z,16.88
2022-12-31T15:18:25.053Z,17.20
2022-12-31T15:21:11.693Z,16.30
2022-12-31T15:23:42.273Z,16.90
2022-12-31T15:26:23.256Z,15.77
2022-12-31T15:29:01.026Z,16.50
2022-12-31T15:31:28.610Z,48.97
2022-12-31T15:34:02.651Z,19.48
2022-12-31T15:36:32.355Z,19.80
2022-12-31T15:39:25.568Z,19.55
2022-12-31T15:42:36.073Z,19.55
2022-12-31T15:44:50.184Z,20.52
2022-12-31T15:47:22.984Z,21.80
2022-12-31T15:49:53.676Z,21.23
2022-12-31T15:52:25.527Z,21.65
2022-12-31T15:54:56.588Z,23.13
2022-12-31T15:57:33.063Z,22.50
2022-12-31T16:00:01.950Z,19.80
2022-12-31T16:02:28.953Z,19.45
2022-12-31T16:04:56.060Z,19.83
2022-12-31T16:07:24.312Z,21.27
2022-12-31T16:09:56.001Z,19.92
2022-12-31T16:12:32.803Z,21.17
2022-12-31T16:15:01.726Z,19.27
2022-12-31T16:17:29.708Z,18.58
2022-12-31T16:19:58.461Z,18.13
2022-12-31T16:22:36.258Z,21.02
2022-12-31T16:25:30.563Z,31.35
2022-12-31T16:27:54.183Z,31.75
2022-12-31T16:30:21.077Z,23.95
2022-12-31T16:32:50.084Z,25.17
2022-12-31T16:35:34.161Z,22.13
2022-12-31T16:38:02.736Z,22.42
2022-12-31T16:40:29.818Z,35.72
2022-12-31T16:42:56.491Z,29.45
2022-12-31T16:45:34.929Z,31.70
2022-12-31T16:48:16.567Z,30.90
2022-12-31T16:50:46.472Z,29.77
2022-12-31T16:53:18.136Z,29.52
2022-12-31T16:55:53.042Z,31.20
2022-12-31T16:58:26.838Z,26.80
2022-12-31T17:00:55.735Z,28.45
2022-12-31T17:03:25.016Z,29.75
2022-12-31T17:05:56.999Z,31.73
2022-12-31T17:08:28.413Z,31.80
2022-12-31T17:10:56.522Z,27.75
2022-12-31T17:13:29.296Z,29.90
2022-12-31T17:15:58.092Z,27.10
2022-12-31T17:18:29.020Z,30.00
2022-12-31T17:21:04.290Z,29.63
2022-12-31T17:23:33.998Z,28.02
2022-12-31T17:26:09.507Z,28.50
2022-12-31T17:28:52.337Z,37.05
2022-12-31T17:31:36.904Z,29.05
2022-12-31T17:34:20.897Z,28.88
2022-12-31T17:37:17.494Z,150.20
2022-12-31T17:39:47.307Z,168.88
2022-12-31T17:42:21.731Z,171.18
2022-12-31T17:44:48.561Z,167.82
2022-12-31T17:47:15.189Z,180.52
2022-12-31T17:49:45.790Z,168.13
2022-12-31T17:52:14.632Z,189.30
2022-12-31T17:54:42.277Z,146.68
2022-12-31T17:57:24.023Z,72.32
2022-12-31T17:59:50.954Z,107.05
2022-12-31T18:02:17.822Z,99.45
2022-12-31T18:04:44.641Z,112.70
2022-12-31T18:07:11.474Z,109.10
2022-12-31T18:09:38.287Z,107.35
2022-12-31T18:12:06.407Z,114.97
2022-12-31T18:14:33.674Z,104.40
2022-12-31T18:17:00.787Z,103.40
2022-12-31T18:20:02.902Z,96.07
2022-12-31T18:22:17.600Z,79.72
2022-12-31T18:24:44.402Z,71.75
2022-12-31T18:27:17.007Z,71.30
2022-12-31T18:29:43.824Z,71.43
2022-12-31T18:32:28.125Z,73.93
2022-12-31T18:34:54.925Z,68.72
2022-12-31T18:37:22.464Z,67.68
2022-12-31T18:39:49.239Z,62.78
2022-12-31T18:42:18.581Z,64.60
2022-12-31T18:44:46.518Z,54.22
2022-12-31T18:47:16.346Z,49.92
2022-12-31T18:49:44.834Z,57.78
2022-12-31T18:52:14.713Z,56.58
2022-12-31T18:54:42.027Z,57.90
2022-12-31T18:57:13.651Z,41.28
2022-12-31T18:59:40.821Z,38.55
2022-12-31T19:02:15.253Z,45.38
2022-12-31T19:04:42.102Z,49.70
2022-12-31T19:07:08.751Z,55.20
2022-12-31T19:09:56.386Z,58.83
2022-12-31T19:12:22.235Z,59.35
2022-12-31T19:14:48.906Z,62.53
2022-12-31T19:17:15.690Z,49.08
2022-12-31T19:19:42.361Z,41.60
2022-12-31T19:22:14.935Z,41.30
2022-12-31T19:24:41.614Z,45.42
2022-12-31T19:27:09.732Z,54.80
2022-12-31T19:29:36.403Z,53.75
2022-12-31T19:32:03.106Z,57.33
2022-12-31T19:34:29.759Z,51.53
2022-12-31T19:36:56.416Z,51.35
2022-12-31T19:39:23.069Z,52.55
2022-12-31T19:41:56.510Z,50.70
2022-12-31T19:44:25.750Z,52.28
2022-12-31T19:46:52.476Z,48.65
2022-12-31T19:49:19.126Z,48.63
2022-12-31T19:51:45.778Z,52.53
2022-12-31T19:54:13.610Z,49.72
2022-12-31T19:56:40.565Z,49.70
2022-12-31T19:59:09.523Z,50.50
2022-12-31T20:01:36.301Z,53.15
2022-12-31T20:04:03.098Z,49.60
2022-12-31T20:06:30.011Z,51.60
2022-12-31T20:08:56.675Z,49.38
2022-12-31T20:11:24.483Z,47.00
2022-12-31T20:13:53.642Z,47.53
2022-12-31T20:16:23.350Z,46.67
2022-12-31T20:18:50.781Z,49.28
2022-12-31T20:21:19.966Z,48.80
2022-12-31T20:23:48.671Z,49.83
2022-12-31T20:26:15.696Z,49.88
2022-12-31T20:28:42.560Z,51.42
2022-12-31T20:31:16.231Z,52.53
2022-12-31T20:33:43.394Z,53.90
2022-12-31T20:36:13.473Z,53.13
2022-12-31T20:38:41.067Z,52.63
2022-12-31T20:41:11.529Z,48.95
2022-12-31T20:43:38.966Z,46.97
2022-12-31T20:46:12.677Z,47.53
2022-12-31T20:48:41.908Z,49.17
2022-12-31T20:51:08.620Z,50.22
2022-12-31T20:53:35.293Z,52.47
2022-12-31T20:56:06.313Z,50.53
2022-12-31T20:58:33.565Z,58.25
2022-12-31T21:01:00.480Z,51.90
2022-12-31T21:06:14.918Z,46.28
2022-12-31T21:08:42.290Z,45.15
2022-12-31T21:11:25.144Z,44.40
2022-12-31T21:13:51.824Z,46.75
2022-12-31T21:16:18.550Z,45.33
2022-12-31T21:18:45.534Z,46.33
2022-12-31T21:21:13.016Z,46.42
2022-12-31T21:23:40.235Z,45.42
2022-12-31T21:26:07.050Z,45.35
2022-12-31T21:28:33.878Z,46.53
2022-12-31T21:31:03.574Z,48.22
2022-12-31T21:33:30.455Z,49.08
2022-12-31T21:36:02.624Z,49.13
2022-12-31T21:38:31.263Z,52.30
2022-12-31T21:41:07.860Z,53.00
2022-12-31T21:43:35.185Z,54.53
2022-12-31T21:46:04.607Z,54.88
2022-12-31T21:48:31.661Z,55.53
2022-12-31T21:51:09.304Z,57.45
2022-12-31T21:53:37.340Z,60.40
2022-12-31T21:56:08.369Z,60.30
2022-12-31T21:58:40.214Z,62.92
2022-12-31T22:01:22.735Z,66.97
2022-12-31T22:03:49.669Z,71.20
2022-12-31T22:06:22.104Z,69.10
2022-12-31T22:08:51.820Z,66.15
2022-12-31T22:11:20.779Z,71.03
2022-12-31T22:13:47.736Z,69.70
2022-12-31T22:16:15.104Z,68.78
2022-12-31T22:18:42.974Z,75.55
2022-12-31T22:21:18.315Z,77.90
2022-12-31T22:23:49.317Z,80.75
2022-12-31T22:26:17.575Z,74.70
2022-12-31T22:28:45.581Z,80.80
2022-12-31T22:31:15.185Z,73.93
2022-12-31T22:33:42.675Z,70.07
2022-12-31T22:36:14.209Z,69.95
2022-12-31T22:38:41.033Z,73.05
2022-12-31T22:41:10.640Z,74.75
2022-12-31T22:43:40.235Z,77.38
2022-12-31T22:46:09.866Z,68.70
2022-12-31T22:48:37.165Z,71.22
2022-12-31T22:51:04.317Z,68.80
2022-12-31T22:53:31.069Z,67.60
2022-12-31T22:55:58.138Z,72.90
2022-12-31T22:58:28.095Z,71.28
2022-12-31T23:00:54.799Z,65.13
2022-12-31T23:03:21.753Z,71.60
2022-12-31T23:05:52.078Z,76.10
2022-12-31T23:08:23.760Z,212.77
2022-12-31T23:10:59.961Z,216.68
2022-12-31T23:13:49.756Z,248.70
2022-12-31T23:16:32.959Z,207.55
2022-12-31T23:19:15.937Z,236.95
2022-12-31T23:21:57.976Z,181.57
2022-12-31T23:24:27.991Z,261.48
2022-12-31T23:26:57.143Z,213.48
2022-12-31T23:29:25.182Z,211.48
2022-12-31T23:31:53.018Z,447.02
2022-12-31T23:34:20.299Z,354.10
2022-12-31T23:36:47.032Z,279.52
2022-12-31T23:39:14.768Z,262.98
2022-12-31T23:41:41.418Z,265.63
2022-12-31T23:44:08.267Z,247.55
2022-12-31T23:46:34.930Z,214.35
2022-12-31T23:49:01.676Z,206.10
2022-12-31T23:51:28.357Z,198.00
2022-12-31T23:53:55.052Z,201.00
2022-12-31T23:56:23.964Z,184.82
2022-12-31T23:58:59.731Z,165.38
